Time;durP1;ratioP1;P1;durP2;ratioP2;P2;SDS_P1;SDS_P2;PMS_P1;PMS_P2;Temp;Humidity;BMP_temperature;BMP_pressure;BME280_temperature;BME280_humidity;BME280_pressure;Samples;Min_cycle;Max_cycle;Signal;HPM_P1;HPM_P2
2023/12/01 00:01:10;;;;;;;10.17;8.23;;;;;;;;;;5063308;28;20199;-68
2023/12/01 00:03:38;;;;;;;9.90;8.20;;;;;;;;;;5060563;28;20202;-67
2023/12/01 00:06:05;;;;;;;9.00;7.90;;;;;;;;;;5062020;28;20226;-69
2023/12/01 00:08:32;;;;;;;9.67;7.40;;;;;;;;;;5066323;28;20213;-68
2023/12/01 00:11:01;;;;;;;11.13;8.03;;;;;;;;;;5059188;28;20210;-68
2023/12/01 00:13:28;;;;;;;9.43;7.77;;;;;;;;;;5061967;28;20203;-67
2023/12/01 00:15:55;;;;;;;9.30;7.80;;;;;;;;;;5058149;28;20210;-69
2023/12/01 00:18:22;;;;;;;11.23;9.33;;;;;;;;;;5060881;28;20203;-68
2023/12/01 00:20:49;;;;;;;10.10;8.07;;;;;;;;;;5059901;28;20202;-67
2023/12/01 00:23:17;;;;;;;9.33;8.07;;;;;;;;;;5059043;28;20528;-69
2023/12/01 00:25:44;;;;;;;9.70;8.37;;;;;;;;;;5060746;28;20207;-69
2023/12/01 00:28:12;;;;;;;10.33;7.80;;;;;;;;;;5063679;28;20198;-69
2023/12/01 00:30:39;;;;;;;8.40;7.50;;;;;;;;;;5058098;28;20224;-69
2023/12/01 00:33:06;;;;;;;8.43;7.33;;;;;;;;;;5059345;28;20241;-69
2023/12/01 00:35:33;;;;;;;7.40;6.13;;;;;;;;;;5058919;28;20317;-68
2023/12/01 00:38:01;;;;;;;8.67;6.60;;;;;;;;;;5060891;28;20345;-67
2023/12/01 00:40:28;;;;;;;7.13;6.43;;;;;;;;;;5061923;28;20206;-69
2023/12/01 00:42:55;;;;;;;8.90;6.67;;;;;;;;;;5060157;28;20226;-62
2023/12/01 00:45:23;;;;;;;7.73;6.90;;;;;;;;;;5063690;28;20207;-62
2023/12/01 00:47:50;;;;;;;7.77;6.47;;;;;;;;;;5061811;28;20203;-62
2023/12/01 00:50:18;;;;;;;8.53;6.80;;;;;;;;;;5061404;28;20204;-62
2023/12/01 00:52:45;;;;;;;7.77;6.63;;;;;;;;;;5061557;28;20229;-61
2023/12/01 00:55:12;;;;;;;7.40;6.07;;;;;;;;;;5064750;28;20310;-63
2023/12/01 00:57:40;;;;;;;8.03;6.93;;;;;;;;;;5064449;28;20269;-62
2023/12/01 01:00:07;;;;;;;9.13;7.47;;;;;;;;;;5062678;28;20203;-62
2023/12/01 01:02:36;;;;;;;9.07;7.47;;;;;;;;;;5059942;28;20199;-62
2023/12/01 01:05:08;;;;;;;8.90;7.27;;;;;;;;;;5067887;28;20207;-63
2023/12/01 01:07:35;;;;;;;7.20;6.50;;;;;;;;;;5065112;28;20191;-62
2023/12/01 01:10:02;;;;;;;7.53;6.77;;;;;;;;;;5063230;28;20216;-62
2023/12/01 01:12:30;;;;;;;7.23;6.53;;;;;;;;;;5063337;28;20223;-62
2023/12/01 01:15:02;;;;;;;6.73;6.00;;;;;;;;;;5066848;28;20203;-63
2023/12/01 01:17:29;;;;;;;7.63;6.13;;;;;;;;;;5060290;28;20199;-63
2023/12/01 01:19:58;;;;;;;7.53;6.67;;;;;;;;;;5063328;28;20432;-62
2023/12/01 01:22:25;;;;;;;6.57;5.47;;;;;;;;;;5059248;28;20203;-63
2023/12/01 01:24:52;;;;;;;6.07;5.23;;;;;;;;;;5060377;28;20206;-63
2023/12/01 01:27:19;;;;;;;7.20;5.47;;;;;;;;;;5060621;28;20236;-62
2023/12/01 01:29:47;;;;;;;6.10;5.33;;;;;;;;;;5062768;28;20202;-62
2023/12/01 01:32:14;;;;;;;7.07;5.70;;;;;;;;;;5067650;28;20232;-63
2023/12/01 01:34:41;;;;;;;7.60;5.70;;;;;;;;;;5062170;28;20203;-62
2023/12/01 01:37:10;;;;;;;5.97;5.33;;;;;;;;;;5059683;28;20213;-63
2023/12/01 01:39:37;;;;;;;6.50;5.57;;;;;;;;;;5061871;28;20195;-62
2023/12/01 01:42:04;;;;;;;5.90;5.23;;;;;;;;;;5069184;28;20238;-62
2023/12/01 01:44:31;;;;;;;4.93;4.43;;;;;;;;;;5058699;28;20223;-62
2023/12/01 01:46:59;;;;;;;5.57;4.53;;;;;;;;;;5061973;28;20217;-61
2023/12/01 01:49:26;;;;;;;7.10;4.53;;;;;;;;;;5061917;28;20199;-61
2023/12/01 01:51:55;;;;;;;5.03;4.43;;;;;;;;;;5067543;28;20226;-63
2023/12/01 01:54:24;;;;;;;5.13;4.67;;;;;;;;;;5059362;28;20195;-69
2023/12/01 01:56:52;;;;;;;5.07;4.40;;;;;;;;;;5061009;28;20260;-68
2023/12/01 01:59:20;;;;;;;5.83;4.43;;;;;;;;;;5063778;28;20207;-69
2023/12/01 02:01:47;;;;;;;5.10;4.30;;;;;;;;;;5065044;28;20202;-69
2023/12/01 02:04:14;;;;;;;4.47;4.00;;;;;;;;;;5054708;28;20194;-68
2023/12/01 02:06:42;;;;;;;5.27;4.37;;;;;;;;;;5065459;28;20202;-68
2023/12/01 02:09:11;;;;;;;4.70;4.03;;;;;;;;;;5066767;28;20207;-68
2023/12/01 02:11:39;;;;;;;5.20;4.50;;;;;;;;;;5058168;28;20211;-68
2023/12/01 02:14:07;;;;;;;4.17;3.77;;;;;;;;;;5059865;28;20427;-67
2023/12/01 02:16:34;;;;;;;4.60;4.07;;;;;;;;;;5062979;28;20235;-68
2023/12/01 02:19:01;;;;;;;5.03;4.53;;;;;;;;;;5061461;28;20203;-67
2023/12/01 02:21:38;;;;;;;5.77;4.30;;;;;;;;;;5060940;28;20203;-69
2023/12/01 02:24:08;;;;;;;6.03;3.90;;;;;;;;;;5063326;28;20203;-67
2023/12/01 02:26:36;;;;;;;4.17;3.70;;;;;;;;;;5060979;28;20230;-68
2023/12/01 02:29:04;;;;;;;4.60;4.13;;;;;;;;;;5062826;28;20481;-68
2023/12/01 02:31:32;;;;;;;3.97;3.57;;;;;;;;;;5064087;28;20209;-67
2023/12/01 02:33:59;;;;;;;4.67;4.17;;;;;;;;;;5063034;28;20223;-68
2023/12/01 02:36:26;;;;;;;4.13;3.73;;;;;;;;;;5058652;28;20202;-68
2023/12/01 02:38:53;;;;;;;4.20;3.80;;;;;;;;;;5061103;28;20213;-68
2023/12/01 02:41:22;;;;;;;4.67;4.00;;;;;;;;;;5058150;28;20245;-68
2023/12/01 02:43:49;;;;;;;5.00;4.07;;;;;;;;;;5064697;28;20226;-71
2023/12/01 02:46:22;;;;;;;4.73;4.20;;;;;;;;;;5057600;28;20206;-67
2023/12/01 02:48:49;;;;;;;4.70;4.20;;;;;;;;;;5061677;28;20213;-69
2023/12/01 02:51:16;;;;;;;4.20;3.80;;;;;;;;;;5059387;28;20199;-68
2023/12/01 02:53:43;;;;;;;5.07;4.10;;;;;;;;;;5059896;28;20247;-67
2023/12/01 02:56:11;;;;;;;4.70;4.10;;;;;;;;;;5059281;28;20199;-68
2023/12/01 02:58:40;;;;;;;4.80;4.13;;;;;;;;;;5063520;28;20210;-68
2023/12/01 03:01:07;;;;;;;4.60;4.10;;;;;;;;;;5059863;28;20573;-68
2023/12/01 03:03:34;;;;;;;5.10;4.00;;;;;;;;;;5060087;28;20199;-69
2023/12/01 03:06:01;;;;;;;4.30;3.80;;;;;;;;;;5058420;28;20206;-66
2023/12/01 03:08:29;;;;;;;4.40;4.00;;;;;;;;;;5061520;28;20230;-68
2023/12/01 03:10:56;;;;;;;3.83;3.47;;;;;;;;;;5059959;28;20208;-67
2023/12/01 03:13:22;;;;;;;5.93;4.00;;;;;;;;;;5058978;28;20233;-68
2023/12/01 03:15:50;;;;;;;4.40;4.00;;;;;;;;;;5060825;28;20203;-68
2023/12/01 03:18:18;;;;;;;5.73;3.77;;;;;;;;;;5059774;28;20202;-67
2023/12/01 03:20:45;;;;;;;4.30;3.90;;;;;;;;;;5063868;28;20206;-68
2023/12/01 03:23:12;;;;;;;4.30;3.90;;;;;;;;;;5059864;28;20199;-67
2023/12/01 03:25:40;;;;;;;4.47;3.77;;;;;;;;;;5056116;28;20211;-66
2023/12/01 03:28:07;;;;;;;3.63;3.33;;;;;;;;;;5058293;28;20198;-67
2023/12/01 03:30:34;;;;;;;4.20;3.80;;;;;;;;;;5059590;28;20210;-69
2023/12/01 03:33:02;;;;;;;4.10;3.70;;;;;;;;;;5062142;28;20225;-68
2023/12/01 03:35:30;;;;;;;4.30;3.90;;;;;;;;;;5059684;28;20199;-67
2023/12/01 03:37:57;;;;;;;4.23;3.87;;;;;;;;;;5056631;28;20210;-68
2023/12/01 03:40:25;;;;;;;4.00;3.63;;;;;;;;;;5061227;28;20570;-69
2023/12/01 03:42:52;;;;;;;4.27;3.87;;;;;;;;;;5057973;28;20223;-68
2023/12/01 03:45:19;;;;;;;4.23;3.83;;;;;;;;;;5058014;28;20206;-66
2023/12/01 03:47:47;;;;;;;4.63;4.23;;;;;;;;;;5062395;28;20198;-67
2023/12/01 03:50:18;;;;;;;4.60;4.20;;;;;;;;;;5061172;28;20218;-67
2023/12/01 03:52:47;;;;;;;4.80;4.30;;;;;;;;;;5060972;28;20276;-68
2023/12/01 03:55:15;;;;;;;5.37;4.57;;;;;;;;;;5060599;28;20537;-68
2023/12/01 03:57:43;;;;;;;4.57;4.17;;;;;;;;;;5061491;28;20209;-66
2023/12/01 04:00:13;;;;;;;4.60;4.20;;;;;;;;;;5058445;28;20202;-67
2023/12/01 04:02:41;;;;;;;5.57;4.90;;;;;;;;;;5059054;28;20234;-68
2023/12/01 04:05:09;;;;;;;5.70;4.30;;;;;;;;;;5059601;28;20207;-68
2023/12/01 04:07:38;;;;;;;5.73;4.80;;;;;;;;;;5064498;28;20208;-68
2023/12/01 04:10:10;;;;;;;5.60;5.10;;;;;;;;;;5060712;28;20206;-68
2023/12/01 04:12:40;;;;;;;4.93;4.43;;;;;;;;;;5060912;28;20202;-68
2023/12/01 04:15:08;;;;;;;5.37;4.87;;;;;;;;;;5063423;28;20233;-68
2023/12/01 04:17:35;;;;;;;5.63;4.80;;;;;;;;;;5062566;28;20203;-68
2023/12/01 04:20:20;;;;;;;6.20;4.87;;;;;;;;;;5061471;28;20238;-67
2023/12/01 04:22:49;;;;;;;4.80;4.33;;;;;;;;;;5063342;28;20203;-63
2023/12/01 04:25:16;;;;;;;5.90;4.77;;;;;;;;;;5066712;28;20209;-62
2023/12/01 04:27:43;;;;;;;4.97;4.57;;;;;;;;;;5063141;28;20207;-62
2023/12/01 04:30:14;;;;;;;5.73;4.90;;;;;;;;;;5065864;28;20227;-63
2023/12/01 04:32:41;;;;;;;7.73;5.57;;;;;;;;;;5063181;28;20207;-64
2023/12/01 04:35:10;;;;;;;6.00;4.93;;;;;;;;;;5095427;28;20210;-63
2023/12/01 04:37:37;;;;;;;5.70;5.10;;;;;;;;;;5065992;28;20202;-62
2023/12/01 04:40:13;;;;;;;6.77;5.20;;;;;;;;;;5066264;28;20214;-62
2023/12/01 04:42:40;;;;;;;5.80;4.73;;;;;;;;;;5067603;28;20230;-63
2023/12/01 04:45:11;;;;;;;5.57;5.00;;;;;;;;;;5063096;28;20212;-63
2023/12/01 04:47:39;;;;;;;6.17;5.57;;;;;;;;;;5064342;28;20203;-62
2023/12/01 04:50:12;;;;;;;5.90;5.30;;;;;;;;;;5064059;28;20211;-63
2023/12/01 04:52:41;;;;;;;5.40;4.90;;;;;;;;;;5065388;28;20205;-63
2023/12/01 04:55:12;;;;;;;5.80;5.20;;;;;;;;;;5063716;28;20534;-62
2023/12/01 04:57:39;;;;;;;7.53;5.03;;;;;;;;;;5065719;28;20282;-62
2023/12/01 05:00:18;;;;;;;5.23;4.73;;;;;;;;;;5069865;28;20245;-62
2023/12/01 05:02:47;;;;;;;7.83;5.23;;;;;;;;;;5064555;28;20207;-63
2023/12/01 05:05:15;;;;;;;6.33;5.17;;;;;;;;;;5061651;28;20203;-63
2023/12/01 05:07:42;;;;;;;5.40;4.70;;;;;;;;;;5062540;28;20194;-63
2023/12/01 05:10:15;;;;;;;6.00;5.23;;;;;;;;;;5062970;28;20207;-63
2023/12/01 05:12:49;;;;;;;6.00;5.40;;;;;;;;;;5060474;28;20210;-62
2023/12/01 05:15:17;;;;;;;6.20;5.07;;;;;;;;;;5063713;28;20227;-63
2023/12/01 05:17:45;;;;;;;5.90;5.30;;;;;;;;;;5067042;28;20199;-62
2023/12/01 05:20:16;;;;;;;5.47;4.97;;;;;;;;;;5067408;28;20231;-63
2023/12/01 05:22:44;;;;;;;5.63;5.00;;;;;;;;;;5062223;28;20199;-62
2023/12/01 05:25:14;;;;;;;6.87;5.77;;;;;;;;;;5066776;28;20217;-62
2023/12/01 05:27:43;;;;;;;7.27;5.90;;;;;;;;;;5066604;28;20222;-62
2023/12/01 05:30:12;;;;;;;5.93;5.30;;;;;;;;;;5061241;28;20203;-63
2023/12/01 05:32:39;;;;;;;6.53;5.57;;;;;;;;;;5062780;28;20198;-63
2023/12/01 05:35:10;;;;;;;6.50;5.40;;;;;;;;;;5063986;28;20224;-63
2023/12/01 05:37:38;;;;;;;6.97;5.90;;;;;;;;;;5065565;28;20209;-63
2023/12/01 05:40:06;;;;;;;6.60;5.97;;;;;;;;;;5068226;28;20217;-63
2023/12/01 05:42:35;;;;;;;6.70;6.10;;;;;;;;;;5066158;28;20322;-62
2023/12/01 05:45:03;;;;;;;6.73;6.00;;;;;;;;;;5061589;28;20211;-62
2023/12/01 05:47:31;;;;;;;6.97;6.20;;;;;;;;;;5066056;28;20256;-63
2023/12/01 05:49:58;;;;;;;6.07;5.47;;;;;;;;;;5062263;28;20196;-62
2023/12/01 05:52:25;;;;;;;6.37;5.77;;;;;;;;;;5065925;28;20199;-62
2023/12/01 05:54:52;;;;;;;6.53;5.83;;;;;;;;;;5064716;27;20227;-61
2023/12/01 05:57:21;;;;;;;6.77;6.07;;;;;;;;;;5065609;28;20203;-62
2023/12/01 05:59:50;;;;;;;6.43;5.70;;;;;;;;;;5061504;28;20202;-63
2023/12/01 06:02:18;;;;;;;7.27;5.63;;;;;;;;;;5058739;28;20326;-63
2023/12/01 06:04:45;;;;;;;5.53;5.00;;;;;;;;;;5067762;28;20198;-62
2023/12/01 06:07:12;;;;;;;6.17;5.57;;;;;;;;;;5058144;28;20202;-62
2023/12/01 06:09:40;;;;;;;6.97;6.17;;;;;;;;;;5060241;28;20233;-62
2023/12/01 06:12:07;;;;;;;7.40;5.43;;;;;;;;;;5064497;28;20207;-62
2023/12/01 06:14:35;;;;;;;6.10;5.50;;;;;;;;;;5063702;28;20268;-62
2023/12/01 06:17:04;;;;;;;5.50;5.00;;;;;;;;;;5058273;28;20206;-64
2023/12/01 06:19:31;;;;;;;6.03;5.33;;;;;;;;;;5061041;28;20203;-62
2023/12/01 06:21:58;;;;;;;6.20;5.60;;;;;;;;;;5062076;28;20256;-62
2023/12/01 06:24:26;;;;;;;6.30;5.70;;;;;;;;;;5060152;28;20226;-62
2023/12/01 06:26:53;;;;;;;5.80;5.30;;;;;;;;;;5057557;28;20199;-64
2023/12/01 06:29:21;;;;;;;7.00;6.30;;;;;;;;;;5063186;28;20210;-62
2023/12/01 06:31:48;;;;;;;7.90;6.70;;;;;;;;;;5060675;28;20202;-63
2023/12/01 06:34:17;;;;;;;5.60;5.10;;;;;;;;;;5051210;28;20306;-63
2023/12/01 06:36:44;;;;;;;6.20;5.60;;;;;;;;;;5063401;28;20199;-63
2023/12/01 06:39:12;;;;;;;7.17;6.47;;;;;;;;;;5060391;28;20244;-63
2023/12/01 06:41:39;;;;;;;6.43;5.77;;;;;;;;;;5058705;28;20234;-64
2023/12/01 06:44:06;;;;;;;6.90;6.20;;;;;;;;;;5065810;28;20203;-63
2023/12/01 06:46:33;;;;;;;8.00;7.17;;;;;;;;;;5061755;28;20215;-63
2023/12/01 06:49:02;;;;;;;7.87;6.90;;;;;;;;;;5058738;28;20210;-63
2023/12/01 06:51:31;;;;;;;8.10;7.30;;;;;;;;;;5057365;28;20219;-62
2023/12/01 06:53:58;;;;;;;7.50;6.70;;;;;;;;;;5061312;28;20211;-62
2023/12/01 06:56:25;;;;;;;8.40;7.17;;;;;;;;;;5055593;28;20206;-63
2023/12/01 06:58:52;;;;;;;8.33;7.53;;;;;;;;;;5047080;28;20309;-62
2023/12/01 07:01:20;;;;;;;9.87;6.73;;;;;;;;;;5061057;28;20195;-63
2023/12/01 07:03:47;;;;;;;9.13;7.53;;;;;;;;;;5060576;28;20202;-62
2023/12/01 07:06:15;;;;;;;9.00;7.37;;;;;;;;;;5060474;28;20225;-62
2023/12/01 07:08:44;;;;;;;8.33;7.43;;;;;;;;;;5060981;28;20215;-63
2023/12/01 07:11:12;;;;;;;7.97;7.17;;;;;;;;;;5060155;28;20205;-63
2023/12/01 07:13:40;;;;;;;10.20;7.93;;;;;;;;;;5054701;28;20216;-63
2023/12/01 07:16:10;;;;;;;8.83;7.73;;;;;;;;;;5065870;28;20214;-63
2023/12/01 07:18:40;;;;;;;10.60;8.27;;;;;;;;;;5059138;28;20293;-63
2023/12/01 07:21:07;;;;;;;9.60;8.33;;;;;;;;;;5055631;28;20335;-62
2023/12/01 07:23:36;;;;;;;8.70;7.73;;;;;;;;;;5063083;28;20203;-63
2023/12/01 07:26:05;;;;;;;8.40;7.43;;;;;;;;;;5059820;28;20206;-63
2023/12/01 07:28:32;;;;;;;7.93;7.13;;;;;;;;;;5062004;28;20262;-64
2023/12/01 07:31:00;;;;;;;9.17;8.07;;;;;;;;;;5061455;28;20206;-63
2023/12/01 07:33:27;;;;;;;8.53;7.63;;;;;;;;;;5061293;28;20211;-63
2023/12/01 07:35:57;;;;;;;8.60;7.70;;;;;;;;;;5056222;28;20207;-63
2023/12/01 07:38:24;;;;;;;8.03;7.23;;;;;;;;;;5059261;28;20301;-63
2023/12/01 07:40:51;;;;;;;8.80;7.87;;;;;;;;;;5058589;28;20210;-64
2023/12/01 07:43:21;;;;;;;9.63;7.97;;;;;;;;;;5056251;28;20231;-63
2023/12/01 07:45:49;;;;;;;8.53;7.07;;;;;;;;;;5048511;28;20211;-63
2023/12/01 07:48:16;;;;;;;7.40;6.70;;;;;;;;;;5059250;28;20199;-63
2023/12/01 07:50:45;;;;;;;9.00;7.80;;;;;;;;;;5061500;28;20202;-63
2023/12/01 07:53:14;;;;;;;8.23;7.33;;;;;;;;;;5058826;28;20199;-69
2023/12/01 07:55:42;;;;;;;8.20;7.40;;;;;;;;;;5056313;28;20322;-71
2023/12/01 07:58:10;;;;;;;9.27;7.50;;;;;;;;;;5058198;28;20237;-69
2023/12/01 08:00:40;;;;;;;8.70;7.23;;;;;;;;;;5056604;28;20218;-69
2023/12/01 08:03:08;;;;;;;9.47;7.70;;;;;;;;;;5062452;28;20336;-68
2023/12/01 08:05:39;;;;;;;8.10;7.30;;;;;;;;;;5059195;28;20199;-69
2023/12/01 08:08:08;;;;;;;8.80;7.70;;;;;;;;;;5063783;28;20206;-71
2023/12/01 08:10:35;;;;;;;8.27;7.47;;;;;;;;;;5059847;28;20217;-71
2023/12/01 08:13:03;;;;;;;7.90;7.10;;;;;;;;;;5047928;28;20227;-69
2023/12/01 08:15:31;;;;;;;7.67;6.87;;;;;;;;;;5052915;28;20257;-70
2023/12/01 08:18:01;;;;;;;8.47;7.57;;;;;;;;;;5056612;28;20289;-70
2023/12/01 08:20:29;;;;;;;8.47;7.57;;;;;;;;;;5065855;28;20510;-71
2023/12/01 08:22:57;;;;;;;9.10;7.80;;;;;;;;;;5057437;28;20217;-70
2023/12/01 08:25:24;;;;;;;9.87;8.13;;;;;;;;;;5063952;28;20223;-69
2023/12/01 08:27:52;;;;;;;8.73;7.63;;;;;;;;;;5056874;28;20220;-69
2023/12/01 08:30:20;;;;;;;9.13;8.23;;;;;;;;;;5057335;28;20489;-71
2023/12/01 08:32:47;;;;;;;8.97;8.07;;;;;;;;;;5066104;28;20267;-70
2023/12/01 08:35:16;;;;;;;9.77;7.40;;;;;;;;;;5065036;28;20280;-71
2023/12/01 08:37:43;;;;;;;8.37;7.47;;;;;;;;;;5056892;28;20280;-70
2023/12/01 08:40:11;;;;;;;7.93;7.13;;;;;;;;;;5058235;28;20206;-71
2023/12/01 08:42:39;;;;;;;8.17;6.53;;;;;;;;;;5059002;28;20246;-70
2023/12/01 08:45:07;;;;;;;8.30;7.37;;;;;;;;;;5055911;28;20214;-68
2023/12/01 08:47:34;;;;;;;7.63;6.83;;;;;;;;;;5058443;28;20203;-71
2023/12/01 08:50:02;;;;;;;8.60;7.70;;;;;;;;;;5056895;28;20229;-72
2023/12/01 08:52:30;;;;;;;7.90;7.10;;;;;;;;;;5063925;28;20245;-71
2023/12/01 08:54:58;;;;;;;9.83;7.80;;;;;;;;;;5056354;28;20261;-69
2023/12/01 08:57:26;;;;;;;8.33;7.43;;;;;;;;;;5059981;28;20223;-70
2023/12/01 08:59:53;;;;;;;8.77;7.40;;;;;;;;;;5065723;28;20207;-70
2023/12/01 09:02:20;;;;;;;9.30;7.87;;;;;;;;;;5061927;28;20199;-69
2023/12/01 09:04:47;;;;;;;8.13;7.33;;;;;;;;;;5059978;28;20195;-71
2023/12/01 09:07:16;;;;;;;7.97;7.13;;;;;;;;;;5068440;28;20202;-71
2023/12/01 09:09:46;;;;;;;7.33;6.57;;;;;;;;;;5063657;27;20353;-71
2023/12/01 09:12:14;;;;;;;8.57;7.13;;;;;;;;;;5061389;28;20205;-70
2023/12/01 09:14:41;;;;;;;7.70;6.90;;;;;;;;;;5063416;28;20306;-71
2023/12/01 09:17:09;;;;;;;8.83;7.60;;;;;;;;;;5059535;28;20284;-70
2023/12/01 09:19:36;;;;;;;7.57;6.87;;;;;;;;;;5064027;28;20210;-69
2023/12/01 09:22:03;;;;;;;7.37;6.60;;;;;;;;;;5062424;28;20212;-70
2023/12/01 09:24:30;;;;;;;9.10;7.40;;;;;;;;;;5059443;28;20203;-70
2023/12/01 09:26:59;;;;;;;7.20;6.50;;;;;;;;;;5059500;28;20302;-71
2023/12/01 09:29:26;;;;;;;7.40;6.50;;;;;;;;;;5058146;28;20253;-69
2023/12/01 09:31:53;;;;;;;9.53;6.77;;;;;;;;;;5058228;28;20207;-72
2023/12/01 09:34:20;;;;;;;5.83;5.23;;;;;;;;;;5059069;28;20230;-71
2023/12/01 09:36:48;;;;;;;6.37;5.77;;;;;;;;;;5065049;28;20199;-71
2023/12/01 09:39:16;;;;;;;7.30;5.47;;;;;;;;;;5063114;28;20199;-71
2023/12/01 09:41:43;;;;;;;5.27;4.77;;;;;;;;;;5063414;28;20296;-71
2023/12/01 09:44:16;;;;;;;5.90;4.80;;;;;;;;;;5065212;28;20574;-70
2023/12/01 09:46:44;;;;;;;5.10;4.60;;;;;;;;;;5058301;28;20206;-70
2023/12/01 09:49:12;;;;;;;4.83;4.33;;;;;;;;;;5059839;28;20294;-70
2023/12/01 09:51:39;;;;;;;5.60;5.00;;;;;;;;;;5065070;28;20200;-71
2023/12/01 09:54:06;;;;;;;5.77;4.90;;;;;;;;;;5061651;28;20195;-71
2023/12/01 09:56:34;;;;;;;6.10;5.23;;;;;;;;;;5061247;28;20223;-71
2023/12/01 09:59:02;;;;;;;4.60;4.20;;;;;;;;;;5061580;28;20214;-69
2023/12/01 10:01:31;;;;;;;4.50;4.10;;;;;;;;;;5064819;28;20207;-70
2023/12/01 10:03:58;;;;;;;5.37;4.73;;;;;;;;;;5062429;28;20206;-70
2023/12/01 10:06:26;;;;;;;4.53;4.13;;;;;;;;;;5064626;28;20195;-71
2023/12/01 10:08:53;;;;;;;5.40;4.90;;;;;;;;;;5057512;28;20195;-68
2023/12/01 10:11:21;;;;;;;8.00;5.10;;;;;;;;;;5065999;28;20261;-71
2023/12/01 10:13:50;;;;;;;4.70;4.30;;;;;;;;;;5060512;28;20294;-71
2023/12/01 10:16:17;;;;;;;5.20;4.50;;;;;;;;;;5059619;28;20218;-68
2023/12/01 10:18:59;;;;;;;6.03;4.37;;;;;;;;;;5062308;28;20199;-69
2023/12/01 10:21:45;;;;;;;4.80;4.30;;;;;;;;;;5064819;28;20252;-71
2023/12/01 10:24:16;;;;;;;4.80;4.30;;;;;;;;;;5062522;28;20207;-71
2023/12/01 10:26:44;;;;;;;5.50;5.00;;;;;;;;;;5059112;28;20217;-70
2023/12/01 10:29:28;;;;;;;4.53;4.13;;;;;;;;;;5056213;28;20230;-69
2023/12/01 10:31:56;;;;;;;5.33;4.43;;;;;;;;;;5064259;28;20338;-71
2023/12/01 10:34:25;;;;;;;4.20;3.80;;;;;;;;;;5058225;28;20329;-68
2023/12/01 10:36:53;;;;;;;5.40;4.37;;;;;;;;;;5061807;28;20207;-71
2023/12/01 10:39:24;;;;;;;4.00;3.60;;;;;;;;;;5057220;28;20211;-71
2023/12/01 10:41:53;;;;;;;4.10;3.70;;;;;;;;;;5059495;28;20249;-71
2023/12/01 10:44:22;;;;;;;4.37;3.97;;;;;;;;;;5080451;28;20317;-70
2023/12/01 10:46:49;;;;;;;4.53;4.10;;;;;;;;;;5058734;28;20203;-71
2023/12/01 10:49:17;;;;;;;4.10;3.70;;;;;;;;;;5063113;28;20202;-69
2023/12/01 10:51:45;;;;;;;3.90;3.53;;;;;;;;;;5062759;28;20214;-70
2023/12/01 10:54:13;;;;;;;5.67;3.97;;;;;;;;;;5057353;28;20203;-69
2023/12/01 10:56:46;;;;;;;4.57;4.17;;;;;;;;;;5061461;28;20238;-71
2023/12/01 10:59:18;;;;;;;5.03;4.53;;;;;;;;;;5091627;28;20210;-70
2023/12/01 11:01:48;;;;;;;4.30;3.90;;;;;;;;;;5061986;28;20206;-68
2023/12/01 11:04:20;;;;;;;4.97;4.27;;;;;;;;;;5059700;28;20199;-69
2023/12/01 11:06:54;;;;;;;4.40;3.87;;;;;;;;;;5057195;28;20251;-70
2023/12/01 11:09:26;;;;;;;3.90;3.50;;;;;;;;;;5060385;28;20203;-71
2023/12/01 11:11:56;;;;;;;4.90;4.40;;;;;;;;;;5055893;28;20203;-70
2023/12/01 11:14:26;;;;;;;4.20;3.80;;;;;;;;;;5053358;28;20204;-69
2023/12/01 11:16:54;;;;;;;4.47;4.07;;;;;;;;;;5059360;28;20321;-70
2023/12/01 11:19:27;;;;;;;3.97;3.67;;;;;;;;;;5059752;28;20195;-71
2023/12/01 11:21:58;;;;;;;4.43;4.03;;;;;;;;;;5055373;28;20210;-71
2023/12/01 11:24:26;;;;;;;4.77;4.37;;;;;;;;;;5063386;28;20205;-64
2023/12/01 11:26:54;;;;;;;3.80;3.43;;;;;;;;;;5061623;28;20209;-63
2023/12/01 11:29:28;;;;;;;4.13;3.73;;;;;;;;;;5059944;28;20333;-64
2023/12/01 11:31:57;;;;;;;4.00;3.60;;;;;;;;;;5062175;28;20226;-64
2023/12/01 11:34:25;;;;;;;4.17;3.77;;;;;;;;;;5061474;28;20268;-63
2023/12/01 11:36:54;;;;;;;3.40;3.10;;;;;;;;;;5058875;28;20269;-64
2023/12/01 11:39:27;;;;;;;5.70;4.30;;;;;;;;;;5060987;28;20203;-63
2023/12/01 11:42:14;;;;;;;4.47;3.83;;;;;;;;;;5060946;28;20230;-63
2023/12/01 11:44:42;;;;;;;4.87;4.33;;;;;;;;;;5055296;28;20208;-64
2023/12/01 11:47:12;;;;;;;4.30;3.90;;;;;;;;;;5061007;28;20213;-64
2023/12/01 11:49:39;;;;;;;3.80;3.40;;;;;;;;;;5063358;28;20199;-63
2023/12/01 11:52:07;;;;;;;4.20;3.80;;;;;;;;;;5057282;28;20223;-63
2023/12/01 11:54:36;;;;;;;3.97;3.57;;;;;;;;;;5058423;28;20229;-63
2023/12/01 11:57:06;;;;;;;3.47;3.17;;;;;;;;;;5058711;28;20223;-63
2023/12/01 11:59:34;;;;;;;3.87;3.47;;;;;;;;;;5055794;28;20234;-64
2023/12/01 12:02:02;;;;;;;5.40;4.90;;;;;;;;;;5060183;28;20217;-64
2023/12/01 12:04:29;;;;;;;5.20;4.40;;;;;;;;;;5055728;28;20234;-64
2023/12/01 12:07:00;;;;;;;5.90;4.63;;;;;;;;;;5062442;28;20199;-63
2023/12/01 12:09:28;;;;;;;4.60;4.20;;;;;;;;;;5065536;28;20202;-64
2023/12/01 12:11:56;;;;;;;4.63;3.80;;;;;;;;;;5059872;28;20211;-63
2023/12/01 12:14:24;;;;;;;4.77;4.03;;;;;;;;;;5058103;28;20200;-63
2023/12/01 12:16:51;;;;;;;3.60;3.30;;;;;;;;;;5057763;28;20232;-63
2023/12/01 12:19:20;;;;;;;7.47;5.60;;;;;;;;;;5057982;28;20211;-64
2023/12/01 12:21:48;;;;;;;6.23;4.80;;;;;;;;;;5062322;28;20265;-63
2023/12/01 12:24:17;;;;;;;4.23;3.83;;;;;;;;;;5057507;28;20203;-64
2023/12/01 12:26:44;;;;;;;4.57;3.90;;;;;;;;;;5062957;28;20199;-63
2023/12/01 12:29:13;;;;;;;4.80;4.30;;;;;;;;;;5057508;28;20210;-63
2023/12/01 12:31:42;;;;;;;4.77;4.33;;;;;;;;;;5058117;28;20198;-64
2023/12/01 12:34:10;;;;;;;4.30;3.90;;;;;;;;;;5065117;28;20206;-63
2023/12/01 12:36:38;;;;;;;4.30;3.90;;;;;;;;;;5067217;28;20219;-62
2023/12/01 12:39:07;;;;;;;5.30;4.27;;;;;;;;;;5064590;28;20207;-63
2023/12/01 12:41:34;;;;;;;5.53;5.00;;;;;;;;;;5058976;28;20227;-63
2023/12/01 12:44:03;;;;;;;4.47;3.97;;;;;;;;;;5059159;28;20229;-64
2023/12/01 12:46:32;;;;;;;4.17;3.77;;;;;;;;;;5060885;28;20268;-64
2023/12/01 12:49:00;;;;;;;4.47;3.73;;;;;;;;;;5065323;28;20300;-64
2023/12/01 12:51:28;;;;;;;5.17;4.03;;;;;;;;;;5062688;28;20265;-63
2023/12/01 12:53:56;;;;;;;5.00;4.30;;;;;;;;;;5056175;28;20207;-63
2023/12/01 12:56:24;;;;;;;4.40;4.00;;;;;;;;;;5064113;28;20235;-63
2023/12/01 12:58:51;;;;;;;4.50;4.10;;;;;;;;;;5061196;28;20253;-62
2023/12/01 13:01:19;;;;;;;4.30;3.90;;;;;;;;;;5064972;28;20210;-63
2023/12/01 13:03:47;;;;;;;5.73;5.20;;;;;;;;;;5064574;28;20207;-65
2023/12/01 13:06:15;;;;;;;6.20;5.00;;;;;;;;;;5065365;28;20245;-63
2023/12/01 13:08:42;;;;;;;4.00;3.53;;;;;;;;;;5067414;28;20210;-63
2023/12/01 13:11:11;;;;;;;4.30;3.90;;;;;;;;;;5065624;28;20233;-63
2023/12/01 13:13:39;;;;;;;3.90;3.50;;;;;;;;;;5061176;28;20226;-63
2023/12/01 13:16:07;;;;;;;4.67;4.00;;;;;;;;;;5064795;28;20241;-63
2023/12/01 13:18:35;;;;;;;3.93;3.53;;;;;;;;;;5067062;28;20205;-64
2023/12/01 13:21:04;;;;;;;4.63;4.07;;;;;;;;;;5065519;28;20302;-63
2023/12/01 13:23:31;;;;;;;4.10;3.70;;;;;;;;;;5065644;28;20210;-63
2023/12/01 13:25:59;;;;;;;4.50;4.10;;;;;;;;;;5065585;28;20201;-64
2023/12/01 13:28:26;;;;;;;4.63;4.20;;;;;;;;;;5067007;28;20205;-63
2023/12/01 13:30:54;;;;;;;4.40;4.00;;;;;;;;;;5065170;28;20292;-64
2023/12/01 13:33:22;;;;;;;4.43;4.03;;;;;;;;;;5057413;28;20336;-63
2023/12/01 13:35:50;;;;;;;6.37;4.10;;;;;;;;;;5066252;28;20219;-64
2023/12/01 13:38:19;;;;;;;4.20;3.90;;;;;;;;;;5065507;28;20212;-64
2023/12/01 13:40:46;;;;;;;4.40;3.93;;;;;;;;;;5066710;28;20209;-64
2023/12/01 13:43:14;;;;;;;3.93;3.50;;;;;;;;;;5062107;28;20234;-64
2023/12/01 13:45:41;;;;;;;4.10;3.70;;;;;;;;;;5067271;28;20199;-62
2023/12/01 13:48:08;;;;;;;4.27;3.90;;;;;;;;;;5065312;28;20191;-63
2023/12/01 13:50:36;;;;;;;4.37;3.97;;;;;;;;;;5063547;28;20192;-64
2023/12/01 13:53:04;;;;;;;4.30;4.00;;;;;;;;;;5061795;28;20302;-64
2023/12/01 13:55:33;;;;;;;4.87;3.63;;;;;;;;;;5062775;28;20245;-64
2023/12/01 13:58:01;;;;;;;4.60;4.17;;;;;;;;;;5064026;28;20199;-64
2023/12/01 14:00:28;;;;;;;4.67;4.23;;;;;;;;;;5061686;28;20203;-64
2023/12/01 14:02:55;;;;;;;4.77;4.30;;;;;;;;;;5061273;28;20203;-64
2023/12/01 14:05:22;;;;;;;4.23;3.87;;;;;;;;;;5063345;28;20232;-63
2023/12/01 14:07:50;;;;;;;4.13;3.73;;;;;;;;;;5065273;28;20203;-62
2023/12/01 14:10:18;;;;;;;5.33;3.97;;;;;;;;;;5066258;28;20477;-64
2023/12/01 14:12:47;;;;;;;5.13;4.33;;;;;;;;;;5063775;28;20203;-65
2023/12/01 14:15:15;;;;;;;4.80;4.30;;;;;;;;;;5062101;28;20195;-64
2023/12/01 14:17:43;;;;;;;5.00;4.50;;;;;;;;;;5066623;28;20223;-63
2023/12/01 14:20:12;;;;;;;4.97;4.47;;;;;;;;;;5068433;28;20204;-63
2023/12/01 14:22:40;;;;;;;4.90;4.40;;;;;;;;;;5064852;28;20194;-65
2023/12/01 14:25:07;;;;;;;6.43;4.27;;;;;;;;;;5064353;28;20198;-64
2023/12/01 14:27:34;;;;;;;4.77;4.27;;;;;;;;;;5060268;28;20198;-63
2023/12/01 14:30:03;;;;;;;5.30;4.80;;;;;;;;;;5060154;28;20207;-64
2023/12/01 14:32:30;;;;;;;5.70;4.87;;;;;;;;;;5067524;28;20210;-63
2023/12/01 14:34:58;;;;;;;5.03;4.20;;;;;;;;;;5062489;28;20230;-63
2023/12/01 14:37:25;;;;;;;4.07;3.67;;;;;;;;;;5059623;28;20223;-65
2023/12/01 14:39:52;;;;;;;4.70;4.30;;;;;;;;;;5062183;28;20214;-64
2023/12/01 14:42:19;;;;;;;4.03;3.57;;;;;;;;;;5057426;28;20242;-63
2023/12/01 14:44:46;;;;;;;4.50;4.07;;;;;;;;;;5057454;28;20210;-64
2023/12/01 14:47:16;;;;;;;4.03;3.63;;;;;;;;;;5062625;28;20294;-63
2023/12/01 14:49:43;;;;;;;4.77;4.03;;;;;;;;;;5061134;28;20202;-66